Alleghany, CA

11:58 PM PST on December 24, 2014 (GMT -0800)
Grass Valley | Change Station
CLOSE
Current Station
Airport
Location: Grass Valley,
Elevation: 3153 ft
Nearby Weather Stations

Elev 3153 ft 39.22 °N, 121.00 °W | Updated 23 minutes ago

Partly Cloudy
Partly Cloudy
36 °F
Feels Like 29 °F
N
9
Wind Variable Wind from North

Today
High -- | Low -- °F
--% Chance of Precip.
Yesterday
High -- | Low -- °F
Precip. -- in
7:20 AM 4:43 PM
Waxing Crescent, 14% visible
Pressure 29.98 in
Visibility 10.0 miles
Clouds Clear
Windchill 29 °F
Dew Point 28 °F
Humidity 75%
Rainfall 0.39 in
Snow Depth Not available.
UV 0 out of 12
Pollen 2.70 out of 12
Air Quality Not available.
Flu Activity Not available.
METAR KGOO 250735Z AUTO 35008KT 10SM CLR 02/M02 A2998 RMK AO1

More Conditions Fewer Conditions

Pressure 29.98 in
Visibility 10.0 miles
Clouds Clear
Windchill 29 °F
Dew Point 28 °F
Humidity 75%
Rainfall 0.39 in
Snow Depth Not available.
UV 0 out of 12
Pollen 2.70 out of 12
Air Quality Not available.
Flu Activity Not available.
METAR KGOO 250735Z AUTO 35008KT 10SM CLR 02/M02 A2998 RMK AO1

More Conditions Fewer Conditions

10-Day Weather Forecast

Almanac

Astronomy

Dec. 24, 2014 Rise Set
Actual Time
Civil Twilight
Nautical Twilight
Astronomical Twilight
Moon
Length of Visible Light
Length of Day
Tomorrow will be .
, % of the Moon is Illuminated

Today's Extremes

State Highs State Lows

Community

WunderPhotos

Upload Photos

1,780,250 photos uploaded!

WunderBlogs® & News

Nearby

Air Quality

  Air Quality AQ Index Pollutant
Not available.

Snow Depth

Station Depth Elevation

Earthquake Activity

City Distance Mag. Time & Date
Minimum magnitude displayed is 2.5.

Coastal Water Temperatures

Place Temperature

Nearby Weather Stations